Time;durP1;ratioP1;P1;durP2;ratioP2;P2;SDS_P1;SDS_P2;PMS_P1;PMS_P2;Temp;Humidity;BMP_temperature;BMP_pressure;BME280_temperature;BME280_humidity;BME280_pressure;Samples;Min_cycle;Max_cycle;Signal;HPM_P1;HPM_P2
2023/06/09 00:01:02;;;;;;;;;;;;;;;12.45;74.77;101735.38;5010258;28;19920;-76
2023/06/09 00:03:27;;;;;;;;;;;;;;;12.41;74.67;101728.09;5008959;28;19917;-76
2023/06/09 00:05:53;;;;;;;;;;;;;;;12.35;74.56;101721.88;5024823;28;20019;-75
2023/06/09 00:08:18;;;;;;;;;;;;;;;12.30;74.63;101725.31;5024450;28;19923;-75
2023/06/09 00:10:44;;;;;;;;;;;;;;;12.27;74.73;101722.34;5026514;28;19925;-75
2023/06/09 00:13:10;;;;;;;;;;;;;;;12.32;74.63;101718.88;4993603;28;20056;-76
2023/06/09 00:15:36;;;;;;;;;;;;;;;12.37;75.38;101721.63;5010284;28;19917;-75
2023/06/09 00:21:15;;;;;;;;;;;;;;;12.36;75.52;101703.88;5011386;28;20612;-75
2023/06/09 00:23:44;;;;;;;;;;;;;;;12.47;75.75;101713.66;4990312;28;19956;-75
2023/06/09 00:26:10;;;;;;;;;;;;;;;12.57;75.57;101717.19;5010531;28;19956;-75
2023/06/09 00:28:35;;;;;;;;;;;;;;;12.53;75.81;101717.94;5013276;28;19974;-76
2023/06/09 00:31:02;;;;;;;;;;;;;;;12.51;75.25;101712.84;5008192;28;20393;-76
2023/06/09 00:33:27;;;;;;;;;;;;;;;12.49;75.79;101722.25;5010118;28;19929;-75
2023/06/09 00:35:53;;;;;;;;;;;;;;;12.43;75.97;101725.97;5010021;28;19921;-76
2023/06/09 00:38:19;;;;;;;;;;;;;;;12.36;76.16;101725.38;5011475;28;19956;-76
2023/06/09 00:40:45;;;;;;;;;;;;;;;12.26;75.86;101726.91;4996977;28;19940;-76
2023/06/09 00:43:10;;;;;;;;;;;;;;;12.21;75.79;101729.56;5012140;28;19917;-76
2023/06/09 00:45:36;;;;;;;;;;;;;;;12.21;76.12;101729.56;5016467;28;19917;-76
2023/06/09 00:48:02;;;;;;;;;;;;;;;12.14;76.49;101722.78;4994447;28;20462;-75
2023/06/09 00:50:27;;;;;;;;;;;;;;;12.10;78.88;101719.78;5011100;28;19921;-75
2023/06/09 00:52:55;;;;;;;;;;;;;;;12.03;79.62;101716.50;5025542;28;20020;-74
2023/06/09 00:55:21;;;;;;;;;;;;;;;11.96;79.81;101715.91;4992604;28;19925;-76
2023/06/09 00:57:47;;;;;;;;;;;;;;;11.93;80.95;101716.44;5010067;28;19921;-76
2023/06/09 01:00:16;;;;;;;;;;;;;;;11.85;81.05;101719.56;5025559;28;19918;-76
2023/06/09 01:02:43;;;;;;;;;;;;;;;11.75;81.26;101715.69;4991939;28;20358;-75
2023/06/09 01:05:09;;;;;;;;;;;;;;;11.69;81.23;101724.75;5009547;28;20015;-75
2023/06/09 01:07:40;;;;;;;;;;;;;;;11.63;81.16;101717.69;5022973;28;19921;-75
2023/06/09 01:10:14;;;;;;;;;;;;;;;11.56;80.95;101719.78;5024868;28;19921;-76
2023/06/09 01:12:39;;;;;;;;;;;;;;;11.47;80.77;101718.63;5005298;28;19967;-75
2023/06/09 01:15:19;;;;;;;;;;;;;;;11.43;80.89;101712.13;5008438;28;19921;-75
2023/06/09 01:17:48;;;;;;;;;;;;;;;11.38;81.19;101720.09;5023613;28;20015;-76
2023/06/09 01:20:16;;;;;;;;;;;;;;;11.33;81.52;101717.38;5005953;28;20282;-75
2023/06/09 01:22:50;;;;;;;;;;;;;;;11.30;81.71;101716.00;5026844;28;20008;-75
2023/06/09 01:25:25;;;;;;;;;;;;;;;11.24;81.97;101718.88;4994117;28;20409;-75
2023/06/09 01:27:51;;;;;;;;;;;;;;;11.32;81.63;101711.22;5007122;28;19931;-76
2023/06/09 01:30:18;;;;;;;;;;;;;;;11.27;81.84;101713.81;5008053;28;19991;-73
2023/06/09 01:32:44;;;;;;;;;;;;;;;11.20;81.89;101716.69;4993415;28;19917;-76
2023/06/09 01:35:10;;;;;;;;;;;;;;;11.14;81.85;101714.19;5024900;28;19923;-75
2023/06/09 01:37:35;;;;;;;;;;;;;;;11.06;82.09;101718.13;5023317;28;19921;-75
2023/06/09 01:40:02;;;;;;;;;;;;;;;11.07;82.54;101718.94;4988923;28;19921;-74
2023/06/09 01:42:28;;;;;;;;;;;;;;;11.17;82.34;101725.22;4995250;28;19924;-77
2023/06/09 01:44:55;;;;;;;;;;;;;;;11.20;81.95;101719.38;5010655;28;20007;-76
2023/06/09 01:47:21;;;;;;;;;;;;;;;11.13;82.29;101713.41;5009272;28;20589;-76
2023/06/09 01:49:48;;;;;;;;;;;;;;;11.10;82.11;101713.88;5009836;28;19960;-77
2023/06/09 01:52:24;;;;;;;;;;;;;;;11.03;82.26;101718.63;5028136;28;19967;-77
2023/06/09 01:54:55;;;;;;;;;;;;;;;10.97;82.79;101711.56;5015243;28;20350;-77
2023/06/09 01:57:37;;;;;;;;;;;;;;;10.92;82.82;101728.41;4994865;28;20334;-76
2023/06/09 02:00:05;;;;;;;;;;;;;;;10.90;83.07;101730.50;5014535;28;19924;-76
2023/06/09 02:02:40;;;;;;;;;;;;;;;10.83;83.22;101710.31;5025874;28;19929;-75
2023/06/09 02:05:07;;;;;;;;;;;;;;;10.90;83.04;101708.25;5013118;28;19971;-75
2023/06/09 02:07:33;;;;;;;;;;;;;;;10.90;83.12;101710.94;5028708;28;19923;-76
2023/06/09 02:21:58;;;;;;;;;;;;;;;10.90;83.33;101709.06;5016473;28;19978;-76
2023/06/09 02:24:28;;;;;;;;;;;;;;;10.84;83.11;101703.91;5012292;28;19921;-76
2023/06/09 02:26:54;;;;;;;;;;;;;;;10.73;83.20;101712.84;4997531;28;20007;-74
2023/06/09 02:29:20;;;;;;;;;;;;;;;10.60;83.48;101709.47;4997175;28;20845;-76
2023/06/09 02:31:46;;;;;;;;;;;;;;;10.53;83.90;101708.81;4996848;28;20012;-74
2023/06/09 02:34:12;;;;;;;;;;;;;;;10.54;84.00;101705.09;5031620;28;19983;-76
2023/06/09 02:36:42;;;;;;;;;;;;;;;10.51;84.11;101692.19;5016278;28;20336;-74
2023/06/09 02:39:08;;;;;;;;;;;;;;;10.49;84.62;101696.97;5011820;28;19925;-77
2023/06/09 02:41:34;;;;;;;;;;;;;;;10.49;84.46;101702.31;5028349;28;19928;-73
2023/06/09 02:44:28;;;;;;;;;;;;;;;10.41;84.47;101707.28;5014830;28;19936;-74
2023/06/09 02:46:54;;;;;;;;;;;;;;;10.60;84.46;101709.47;5025250;28;19947;-76
2023/06/09 02:49:21;;;;;;;;;;;;;;;10.55;84.04;101709.38;4993002;28;19972;-77
2023/06/09 02:51:46;;;;;;;;;;;;;;;10.50;84.27;101714.69;5009204;28;19957;-74
2023/06/09 02:54:13;;;;;;;;;;;;;;;10.43;84.31;101708.69;4993559;28;19918;-75
2023/06/09 02:56:39;;;;;;;;;;;;;;;10.40;84.41;101711.84;5011146;28;19928;-76
2023/06/09 02:59:05;;;;;;;;;;;;;;;10.43;84.44;101708.69;5010378;28;20349;-76
2023/06/09 03:01:34;;;;;;;;;;;;;;;10.52;84.41;101707.22;5012318;28;20382;-76
2023/06/09 03:04:05;;;;;;;;;;;;;;;10.51;84.27;101710.13;5028192;28;20541;-74
2023/06/09 03:06:33;;;;;;;;;;;;;;;10.48;84.28;101714.09;5012550;28;19921;-76
2023/06/09 03:09:02;;;;;;;;;;;;;;;10.41;84.63;101718.81;4990436;28;19933;-75
2023/06/09 03:11:30;;;;;;;;;;;;;;;10.40;84.58;101714.53;5038526;28;19943;-75
2023/06/09 03:13:56;;;;;;;;;;;;;;;10.41;84.56;101721.50;5009688;28;19968;-76
2023/06/09 03:16:22;;;;;;;;;;;;;;;10.38;84.65;101724.66;5012495;28;19948;-75
2023/06/09 03:18:48;;;;;;;;;;;;;;;10.36;84.77;101713.38;5012417;28;19944;-75
2023/06/09 03:21:14;;;;;;;;;;;;;;;10.29;85.38;101718.88;5011726;28;20378;-76
2023/06/09 03:23:43;;;;;;;;;;;;;;;10.26;85.54;101708.69;4994314;28;20011;-76
2023/06/09 03:26:09;;;;;;;;;;;;;;;10.37;85.69;101715.03;4991243;28;20384;-75
2023/06/09 03:28:35;;;;;;;;;;;;;;;10.46;85.61;101718.91;5010745;28;19925;-75
2023/06/09 03:31:01;;;;;;;;;;;;;;;10.50;85.56;101714.69;5012341;28;19928;-74
2023/06/09 03:33:29;;;;;;;;;;;;;;;10.53;85.41;101714.19;5008901;28;20000;-76
2023/06/09 03:35:55;;;;;;;;;;;;;;;10.54;85.50;101715.00;5012112;28;19928;-74
2023/06/09 03:38:23;;;;;;;;;;;;;;;10.57;85.26;101717.19;5027592;28;19999;-75
2023/06/09 03:40:50;;;;;;;;;;;;;;;10.57;86.05;101707.28;5003633;28;19921;-76
2023/06/09 03:43:16;;;;;;;;;;;;;;;10.60;85.84;101719.38;5001152;28;19921;-74
2023/06/09 03:45:41;;;;;;;;;;;;;;;10.65;86.22;101712.22;5020234;28;19921;-76
2023/06/09 03:48:08;;;;;;;;;;;;;;;10.70;85.92;101724.06;5005987;28;20026;-75
2023/06/09 03:50:34;;;;;;;;;;;;;;;10.78;85.56;101719.09;5002655;28;19921;-73
2023/06/09 03:53:02;;;;;;;;;;;;;;;10.87;85.82;101724.84;5014939;28;19924;-76
2023/06/09 03:55:31;;;;;;;;;;;;;;;11.01;85.56;101715.38;5009675;28;20345;-75
2023/06/09 03:57:58;;;;;;;;;;;;;;;11.07;85.66;101719.75;5023911;28;20012;-73
2023/06/09 04:00:25;;;;;;;;;;;;;;;11.12;85.85;101717.13;5010225;28;19925;-76
2023/06/09 04:02:54;;;;;;;;;;;;;;;11.17;85.68;101719.84;4993401;28;19928;-76
2023/06/09 04:05:21;;;;;;;;;;;;;;;11.21;85.69;101720.19;5008799;28;19921;-77
2023/06/09 04:07:47;;;;;;;;;;;;;;;11.26;85.16;101714.91;4994673;28;19967;-74
2023/06/09 04:10:13;;;;;;;;;;;;;;;11.34;85.72;101717.13;5026094;28;19979;-76
2023/06/09 04:12:41;;;;;;;;;;;;;;;11.63;84.46;101717.69;4992567;28;20458;-75
2023/06/09 04:31:10;;;;;;;;;;;;;;;12.57;77.23;101721.75;5019968;28;19944;-74
2023/06/09 04:33:36;;;;;;;;;;;;;;;12.84;74.60;101733.22;5004177;28;19924;-75
2023/06/09 04:36:03;;;;;;;;;;;;;;;12.91;74.75;101732.97;5011261;28;19917;-76
2023/06/09 04:38:33;;;;;;;;;;;;;;;13.01;74.65;101737.63;4994272;28;20617;-75
2023/06/09 04:41:03;;;;;;;;;;;;;;;13.17;74.66;101739.28;4990226;28;19957;-74
2023/06/09 04:43:33;;;;;;;;;;;;;;;13.34;73.51;101731.88;5025554;28;19923;-75
2023/06/09 04:46:01;;;;;;;;;;;;;;;13.47;73.53;101743.19;5011599;28;19979;-74
2023/06/09 04:48:29;;;;;;;;;;;;;;;13.52;73.96;101738.63;5025245;28;19972;-76
2023/06/09 04:51:00;;;;;;;;;;;;;;;13.56;75.01;101739.75;5011592;28;19943;-76
2023/06/09 04:53:30;;;;;;;;;;;;;;;13.66;73.43;101738.94;5023092;28;19921;-76
2023/06/09 04:55:58;;;;;;;;;;;;;;;13.86;73.00;101740.88;5027518;28;19917;-77
2023/06/09 04:58:28;;;;;;;;;;;;;;;13.90;73.72;101750.84;5013248;28;19918;-75
2023/06/09 05:00:57;;;;;;;;;;;;;;;13.96;73.19;101751.66;5013572;28;19943;-76
2023/06/09 05:03:23;;;;;;;;;;;;;;;14.29;70.17;101742.22;5011291;28;19968;-75
2023/06/09 05:05:50;;;;;;;;;;;;;;;14.32;71.21;101746.28;5029034;28;19921;-75
2023/06/09 05:08:16;;;;;;;;;;;;;;;14.40;70.76;101748.44;4994800;28;19964;-75
2023/06/09 05:10:43;;;;;;;;;;;;;;;14.67;68.77;101742.78;5007062;28;19929;-75
2023/06/09 05:13:09;;;;;;;;;;;;;;;14.76;67.71;101751.91;5025496;28;19921;-77
2023/06/09 05:15:35;;;;;;;;;;;;;;;14.88;67.70;101744.34;5010721;28;19937;-74
2023/06/09 05:18:02;;;;;;;;;;;;;;;14.98;67.35;101749.72;5010025;28;20342;-75
2023/06/09 05:20:28;;;;;;;;;;;;;;;15.17;66.02;101741.00;4993242;28;19917;-74
2023/06/09 05:22:54;;;;;;;;;;;;;;;15.26;66.82;101739.38;4993004;28;19928;-74
2023/06/09 05:45:19;;;;;;;;;;;;;;;16.53;59.76;101746.63;5022262;28;19932;-73
2023/06/09 05:47:44;;;;;;;;;;;;;;;16.71;60.21;101755.13;4990670;28;19922;-80
2023/06/09 05:50:10;;;;;;;;;;;;;;;17.00;59.57;101750.50;5027956;28;20447;-75
2023/06/09 05:52:35;;;;;;;;;;;;;;;17.02;58.14;101748.31;5026851;28;19920;-76
2023/06/09 05:55:02;;;;;;;;;;;;;;;17.24;57.56;101749.69;5010694;28;19920;-76
2023/06/09 05:57:29;;;;;;;;;;;;;;;17.40;55.96;101760.00;5010870;28;19987;-76
2023/06/09 05:59:56;;;;;;;;;;;;;;;17.54;55.80;101754.69;5016619;28;19991;-77
2023/06/09 06:02:23;;;;;;;;;;;;;;;17.83;56.04;101748.38;5010822;28;19932;-74
2023/06/09 06:04:49;;;;;;;;;;;;;;;17.91;56.11;101753.91;5012039;28;19927;-75
2023/06/09 06:19:08;;;;;;;;;;;;;;;18.70;55.41;101754.00;5021988;28;19917;-77
2023/06/09 06:21:37;;;;;;;;;;;;;;;18.83;54.32;101757.78;5015693;28;19923;-76
2023/06/09 06:24:04;;;;;;;;;;;;;;;19.00;52.37;101755.31;4996519;28;20344;-76
2023/06/09 06:26:30;;;;;;;;;;;;;;;19.09;53.33;101760.81;5027929;28;19921;-79
2023/06/09 06:28:55;;;;;;;;;;;;;;;19.27;50.20;101761.84;5027937;28;20298;-77
2023/06/09 06:31:21;;;;;;;;;;;;;;;19.43;50.81;101762.31;5011440;28;19917;-75
2023/06/09 06:33:47;;;;;;;;;;;;;;;19.55;50.37;101768.03;5011171;28;19928;-76
2023/06/09 06:36:13;;;;;;;;;;;;;;;19.77;49.36;101765.38;5012883;28;19943;-74
2023/06/09 06:38:38;;;;;;;;;;;;;;;19.75;49.20;101762.16;5034670;28;19932;-76
2023/06/09 06:41:04;;;;;;;;;;;;;;;20.01;50.14;101764.31;5029422;28;19919;-77
2023/06/09 06:43:30;;;;;;;;;;;;;;;19.95;48.46;101773.69;5010880;28;19972;-77
2023/06/09 06:45:59;;;;;;;;;;;;;;;20.25;47.68;101775.66;5012584;28;19925;-75
2023/06/09 06:48:26;;;;;;;;;;;;;;;20.26;47.07;101771.03;5013187;28;19917;-75
2023/06/09 06:50:51;;;;;;;;;;;;;;;20.62;47.30;101779.13;5011673;28;19917;-77
2023/06/09 06:53:17;;;;;;;;;;;;;;;20.62;47.26;101773.69;4994892;28;19931;-76
2023/06/09 06:55:43;;;;;;;;;;;;;;;20.69;47.41;101774.03;5018661;28;19956;-77
2023/06/09 06:58:08;;;;;;;;;;;;;;;20.74;46.80;101779.34;4993992;28;19991;-75
2023/06/09 07:00:35;;;;;;;;;;;;;;;20.83;50.05;101785.63;5029477;28;19921;-76
2023/06/09 07:03:00;;;;;;;;;;;;;;;20.85;46.62;101777.94;5030598;28;19955;-77
2023/06/09 07:05:26;;;;;;;;;;;;;;;21.06;46.50;101771.94;5016320;28;20383;-77
2023/06/09 07:07:52;;;;;;;;;;;;;;;21.12;47.08;101787.03;5033703;28;19952;-75
2023/06/09 07:10:18;;;;;;;;;;;;;;;21.01;47.64;101791.16;4998387;28;19933;-76
2023/06/09 07:12:43;;;;;;;;;;;;;;;21.05;47.03;101781.22;5032907;28;20583;-76
2023/06/09 07:15:09;;;;;;;;;;;;;;;21.39;46.91;101778.63;5016488;28;19917;-76
2023/06/09 07:17:35;;;;;;;;;;;;;;;21.64;47.01;101784.44;5023561;28;19921;-75
2023/06/09 07:20:01;;;;;;;;;;;;;;;21.69;48.11;101784.31;5033715;28;20321;-75
2023/06/09 07:22:28;;;;;;;;;;;;;;;21.74;46.58;101784.97;5032018;28;19918;-76
2023/06/09 07:24:53;;;;;;;;;;;;;;;21.89;46.20;101789.13;5017349;28;20323;-76
2023/06/09 07:27:19;;;;;;;;;;;;;;;22.20;47.07;101793.63;5029646;28;20035;-76
2023/06/09 07:29:45;;;;;;;;;;;;;;;22.43;45.72;101786.06;5015436;28;19983;-75
2023/06/09 07:32:10;;;;;;;;;;;;;;;22.02;46.61;101787.38;5014867;28;20298;-76
2023/06/09 07:34:37;;;;;;;;;;;;;;;21.96;46.78;101789.44;4995148;28;20314;-75
2023/06/09 07:37:06;;;;;;;;;;;;;;;22.40;46.12;101789.41;5028508;28;19921;-75
2023/06/09 07:39:34;;;;;;;;;;;;;;;22.68;46.01;101787.09;5013420;28;20015;-76
2023/06/09 07:41:59;;;;;;;;;;;;;;;22.86;45.57;101794.13;5030714;28;19921;-73
2023/06/09 07:44:26;;;;;;;;;;;;;;;23.21;44.02;101786.56;5031055;28;20011;-75
2023/06/09 07:46:51;;;;;;;;;;;;;;;23.16;44.00;101803.94;5015352;28;20394;-75
2023/06/09 07:49:17;;;;;;;;;;;;;;;22.94;45.51;101793.28;5030652;28;19929;-77
2023/06/09 07:51:43;;;;;;;;;;;;;;;23.06;44.90;101793.41;4993077;28;19970;-74
2023/06/09 07:54:09;;;;;;;;;;;;;;;23.18;44.31;101791.91;5030644;28;19917;-76
2023/06/09 07:56:36;;;;;;;;;;;;;;;23.53;44.46;101793.31;5014069;28;19921;-75
2023/06/09 07:59:02;;;;;;;;;;;;;;;23.23;44.25;101795.22;4995621;28;19928;-76
2023/06/09 08:01:29;;;;;;;;;;;;;;;23.36;45.44;101790.66;5043838;28;19944;-77
2023/06/09 08:03:55;;;;;;;;;;;;;;;23.82;44.87;101794.41;5015957;28;19925;-74
2023/06/09 08:06:21;;;;;;;;;;;;;;;23.89;43.64;101786.47;5003077;28;19928;-78
2023/06/09 08:08:46;;;;;;;;;;;;;;;23.99;42.37;101785.25;5024216;28;20465;-76
2023/06/09 08:11:12;;;;;;;;;;;;;;;23.85;41.89;101791.00;4995136;28;19925;-76
2023/06/09 08:13:37;;;;;;;;;;;;;;;24.01;44.36;101786.53;4996121;28;19940;-76
2023/06/09 08:16:03;;;;;;;;;;;;;;;24.60;41.42;101790.97;5029103;28;19940;-76
2023/06/09 08:18:29;;;;;;;;;;;;;;;24.78;39.91;101793.13;5000635;28;19921;-77
2023/06/09 08:20:55;;;;;;;;;;;;;;;24.20;41.43;101788.78;5031703;28;19927;-77
2023/06/09 08:23:22;;;;;;;;;;;;;;;24.25;41.28;101794.03;5010802;28;19936;-75
2023/06/09 08:25:48;;;;;;;;;;;;;;;24.07;41.19;101782.44;5028881;28;19927;-75
2023/06/09 08:28:14;;;;;;;;;;;;;;;24.54;41.25;101784.91;4996664;28;19917;-72
2023/06/09 08:30:39;;;;;;;;;;;;;;;24.49;40.76;101782.38;5023916;28;19984;-75
2023/06/09 08:33:05;;;;;;;;;;;;;;;24.32;40.35;101779.78;5012405;28;19921;-76
2023/06/09 08:35:32;;;;;;;;;;;;;;;24.59;40.26;101779.22;4996966;28;19928;-78
2023/06/09 08:37:59;;;;;;;;;;;;;;;24.71;39.19;101781.94;5016198;28;20397;-80
2023/06/09 08:40:24;;;;;;;;;;;;;;;24.96;38.04;101784.72;5012085;28;19920;-75
2023/06/09 08:42:53;;;;;;;;;;;;;;;24.92;39.04;101778.31;5029439;28;19928;-77
2023/06/09 08:45:20;;;;;;;;;;;;;;;24.96;36.78;101784.72;5011395;28;20317;-77
2023/06/09 08:47:47;;;;;;;;;;;;;;;25.48;36.75;101775.81;4996227;28;19929;-76
2023/06/09 08:50:16;;;;;;;;;;;;;;;25.27;36.23;101778.69;5010860;28;19956;-79
2023/06/09 08:52:42;;;;;;;;;;;;;;;25.46;35.64;101775.34;5029618;28;19961;-76
2023/06/09 08:55:08;;;;;;;;;;;;;;;25.71;36.01;101767.84;5011247;28;19959;-75
2023/06/09 08:57:34;;;;;;;;;;;;;;;25.48;36.52;101778.56;5012243;28;19925;-78
2023/06/09 09:00:03;;;;;;;;;;;;;;;25.88;35.29;101780.50;5014462;28;19952;-76
2023/06/09 09:02:29;;;;;;;;;;;;;;;25.93;35.71;101783.00;5012840;28;20477;-76
2023/06/09 09:05:16;;;;;;;;;;;;;;;25.16;35.95;101786.56;5014120;28;19928;-75
2023/06/09 09:07:45;;;;;;;;;;;;;;;25.35;36.69;101777.78;4995662;28;19921;-76
2023/06/09 09:10:10;;;;;;;;;;;;;;;25.78;35.06;101766.13;5026771;28;19926;-77
2023/06/09 09:12:49;;;;;;;;;;;;;;;25.45;35.28;101771.00;5013312;28;20374;-77
2023/06/09 09:15:15;;;;;;;;;;;;;;;25.81;34.79;101772.91;5017066;28;19928;-76
2023/06/09 09:17:40;;;;;;;;;;;;;;;25.70;34.90;101766.25;5025516;28;19920;-77
2023/06/09 09:20:10;;;;;;;;;;;;;;;26.18;35.10;101768.03;4993621;28;19920;-76
2023/06/09 09:22:43;;;;;;;;;;;;;;;26.05;34.10;101763.75;4999463;28;19917;-76
2023/06/09 09:25:09;;;;;;;;;;;;;;;26.15;34.24;101771.50;5008544;28;19924;-76
2023/06/09 09:27:34;;;;;;;;;;;;;;;25.68;34.90;101766.63;5011154;28;19932;-75
2023/06/09 09:30:00;;;;;;;;;;;;;;;26.03;35.30;101768.78;5007043;28;19929;-76
2023/06/09 09:32:26;;;;;;;;;;;;;;;25.64;35.30;101773.94;5026681;28;19921;-77
2023/06/09 09:34:54;;;;;;;;;;;;;;;26.14;34.63;101772.63;5029390;28;19990;-77
2023/06/09 09:37:20;;;;;;;;;;;;;;;26.25;35.60;101773.72;4995997;28;20033;-76
2023/06/09 09:39:49;;;;;;;;;;;;;;;26.16;33.48;101769.53;5031034;28;19973;-76
2023/06/09 09:42:15;;;;;;;;;;;;;;;26.48;34.05;101776.69;5026126;28;19972;-75
2023/06/09 09:44:42;;;;;;;;;;;;;;;26.72;34.29;101781.22;4995978;28;19921;-78
2023/06/09 09:47:08;;;;;;;;;;;;;;;26.82;31.73;101775.19;5012705;28;19925;-74
2023/06/09 09:49:34;;;;;;;;;;;;;;;26.43;31.24;101767.94;5025016;28;19967;-76
2023/06/09 09:52:00;;;;;;;;;;;;;;;26.51;32.15;101777.94;5009778;28;21107;-77
2023/06/09 09:54:26;;;;;;;;;;;;;;;26.69;31.20;101765.47;5007226;28;19929;-75
2023/06/09 09:56:53;;;;;;;;;;;;;;;26.78;31.17;101768.81;4996135;28;20310;-77
2023/06/09 09:59:19;;;;;;;;;;;;;;;27.47;32.67;101766.50;5012692;28;19952;-76
2023/06/09 10:01:46;;;;;;;;;;;;;;;27.30;29.73;101767.72;5025422;28;19921;-77
2023/06/09 10:04:11;;;;;;;;;;;;;;;27.19;32.30;101766.69;5012923;28;19998;-77
2023/06/09 10:06:37;;;;;;;;;;;;;;;27.22;31.00;101768.69;5033106;28;19921;-78
2023/06/09 10:09:04;;;;;;;;;;;;;;;27.32;31.11;101776.41;4993110;28;21518;-77
2023/06/09 10:11:31;;;;;;;;;;;;;;;27.33;31.20;101767.00;5017321;28;19927;-76
2023/06/09 10:13:58;;;;;;;;;;;;;;;27.41;31.95;101767.94;5000202;28;19928;-75
2023/06/09 10:16:25;;;;;;;;;;;;;;;27.66;32.01;101762.97;5001749;28;19922;-74
2023/06/09 10:18:50;;;;;;;;;;;;;;;27.81;31.91;101764.88;5029657;28;19921;-76
2023/06/09 10:21:16;;;;;;;;;;;;;;;28.14;30.64;101764.34;5026221;28;20562;-77
2023/06/09 10:23:42;;;;;;;;;;;;;;;27.70;28.22;101752.84;4993015;28;20878;-76
2023/06/09 10:26:09;;;;;;;;;;;;;;;27.98;29.26;101747.94;5027751;28;20024;-77
2023/06/09 10:28:34;;;;;;;;;;;;;;;27.74;26.80;101753.75;5011399;28;19921;-77
2023/06/09 10:31:01;;;;;;;;;;;;;;;27.70;27.40;101755.63;5013479;28;19917;-75
2023/06/09 10:33:32;;;;;;;;;;;;;;;27.78;28.94;101746.38;5029021;28;19928;-76
2023/06/09 10:35:58;;;;;;;;;;;;;;;27.73;27.38;101752.94;5035336;28;19923;-76
2023/06/09 10:38:26;;;;;;;;;;;;;;;27.57;28.94;101743.13;5028966;28;19982;-74
2023/06/09 10:41:05;;;;;;;;;;;;;;;27.84;27.41;101747.66;5030012;28;20416;-77
2023/06/09 10:43:34;;;;;;;;;;;;;;;27.93;25.95;101739.97;5029710;28;19940;-76
2023/06/09 10:46:00;;;;;;;;;;;;;;;27.86;27.23;101739.03;5015087;28;19921;-77
2023/06/09 10:48:45;;;;;;;;;;;;;;;28.16;26.58;101736.44;5033952;28;19928;-77
2023/06/09 10:51:22;;;;;;;;;;;;;;;27.59;27.36;101735.31;5012068;28;19918;-78
2023/06/09 10:54:07;;;;;;;;;;;;;;;28.26;26.78;101733.91;5028937;28;19925;-76
2023/06/09 10:56:36;;;;;;;;;;;;;;;28.18;26.82;101729.44;5013318;28;19917;-74
2023/06/09 10:59:03;;;;;;;;;;;;;;;28.52;27.42;101729.66;5029227;28;19924;-74
2023/06/09 11:01:28;;;;;;;;;;;;;;;28.22;27.33;101729.47;5028085;28;19928;-75
2023/06/09 11:03:54;;;;;;;;;;;;;;;28.05;26.52;101728.00;5027230;28;19921;-77
2023/06/09 11:06:20;;;;;;;;;;;;;;;28.22;26.02;101726.72;5021624;28;19929;-76
2023/06/09 11:09:01;;;;;;;;;;;;;;;28.12;24.59;101725.38;5030565;28;19933;-74
2023/06/09 11:11:45;;;;;;;;;;;;;;;28.55;26.28;101726.16;5012514;28;19972;-75
2023/06/09 11:14:36;;;;;;;;;;;;;;;28.79;26.44;101724.97;5037316;28;19917;-74
2023/06/09 11:17:14;;;;;;;;;;;;;;;28.69;26.89;101714.56;5032885;28;19944;-73
2023/06/09 11:19:39;;;;;;;;;;;;;;;29.46;26.99;101711.31;5011678;28;19920;-74
2023/06/09 11:22:06;;;;;;;;;;;;;;;28.95;26.29;101724.81;5030296;28;19921;-75
2023/06/09 11:24:47;;;;;;;;;;;;;;;29.51;27.98;101721.28;4997809;28;19959;-74
2023/06/09 11:27:21;;;;;;;;;;;;;;;28.80;27.44;101727.34;5029216;28;19940;-74
2023/06/09 11:30:06;;;;;;;;;;;;;;;28.50;27.31;101713.47;5014454;28;19948;-77
2023/06/09 11:32:50;;;;;;;;;;;;;;;28.91;26.08;101716.50;5011938;28;19921;-75
2023/06/09 11:35:25;;;;;;;;;;;;;;;28.50;26.79;101720.94;5011616;28;19917;-77
2023/06/09 11:37:58;;;;;;;;;;;;;;;28.02;26.06;101720.47;5025356;28;20623;-77
2023/06/09 11:40:24;;;;;;;;;;;;;;;29.13;24.09;101717.59;5011123;28;20409;-76
2023/06/09 11:42:51;;;;;;;;;;;;;;;29.12;25.54;101715.19;5028335;28;20310;-75
2023/06/09 11:45:17;;;;;;;;;;;;;;;29.70;25.21;101717.56;5028315;28;19931;-79
2023/06/09 11:47:44;;;;;;;;;;;;;;;29.17;24.73;101723.16;5028657;28;19957;-78
2023/06/09 11:50:12;;;;;;;;;;;;;;;29.24;25.17;101721.28;5027383;28;19925;-76
2023/06/09 11:53:01;;;;;;;;;;;;;;;29.34;24.45;101714.34;5012269;28;19963;-74
2023/06/09 11:55:28;;;;;;;;;;;;;;;29.20;24.07;101714.16;5011242;28;19925;-75
2023/06/09 11:57:54;;;;;;;;;;;;;;;30.08;23.94;101714.44;5003522;28;19952;-76
2023/06/09 12:00:23;;;;;;;;;;;;;;;29.85;22.52;101708.25;4995075;28;19956;-75
2023/06/09 12:02:49;;;;;;;;;;;;;;;29.33;24.06;101704.44;5014431;28;19917;-76
2023/06/09 12:05:16;;;;;;;;;;;;;;;29.71;22.70;101708.09;4995082;28;20369;-75
2023/06/09 12:07:43;;;;;;;;;;;;;;;29.69;22.84;101718.72;4984304;28;19973;-76
2023/06/09 12:10:08;;;;;;;;;;;;;;;29.61;21.33;101710.38;5007392;28;19941;-75
2023/06/09 12:12:44;;;;;;;;;;;;;;;29.84;21.51;101717.72;5025966;28;19988;-76
2023/06/09 12:15:10;;;;;;;;;;;;;;;29.66;20.44;101717.50;5023329;28;19917;-76
2023/06/09 12:17:36;;;;;;;;;;;;;;;29.65;20.41;101710.41;5008932;28;20375;-75
2023/06/09 12:20:20;;;;;;;;;;;;;;;29.55;19.46;101706.34;5027554;28;19928;-76
2023/06/09 12:22:46;;;;;;;;;;;;;;;29.89;20.05;101700.81;5025553;28;19971;-75
2023/06/09 12:25:25;;;;;;;;;;;;;;;30.16;18.20;101707.03;5027669;28;19925;-76
2023/06/09 12:27:51;;;;;;;;;;;;;;;30.23;17.40;101700.78;5026857;28;19970;-75
2023/06/09 12:30:32;;;;;;;;;;;;;;;30.18;18.22;101693.63;5027375;28;19932;-75
2023/06/09 12:33:02;;;;;;;;;;;;;;;30.00;18.23;101687.88;5007039;28;20300;-75
2023/06/09 12:35:36;;;;;;;;;;;;;;;30.43;19.13;101693.84;5009743;28;19920;-77
2023/06/09 12:38:08;;;;;;;;;;;;;;;30.70;20.02;101700.78;5027206;28;20011;-76
2023/06/09 12:40:44;;;;;;;;;;;;;;;30.72;19.17;101689.34;4996795;28;19921;-77
2023/06/09 12:43:11;;;;;;;;;;;;;;;30.46;19.52;101693.06;5013982;28;20378;-76
2023/06/09 12:45:37;;;;;;;;;;;;;;;31.07;20.06;101688.75;5025725;28;19918;-74
2023/06/09 12:48:06;;;;;;;;;;;;;;;31.59;18.77;101694.94;5025259;28;20429;-75
2023/06/09 12:50:32;;;;;;;;;;;;;;;31.01;19.36;101692.25;5023843;28;19932;-75
2023/06/09 12:52:57;;;;;;;;;;;;;;;31.77;19.58;101684.69;5010559;28;19932;-75
2023/06/09 12:55:23;;;;;;;;;;;;;;;32.03;20.14;101688.31;5026159;28;20333;-75
2023/06/09 12:57:48;;;;;;;;;;;;;;;31.67;20.94;101682.69;5024993;28;19924;-77
2023/06/09 13:00:14;;;;;;;;;;;;;;;31.40;21.83;101690.50;5028077;28;19921;-75
2023/06/09 13:02:40;;;;;;;;;;;;;;;31.98;21.01;101680.41;5010769;28;19917;-76
2023/06/09 13:05:06;;;;;;;;;;;;;;;32.19;19.92;101679.63;5025672;28;19921;-76
2023/06/09 13:07:31;;;;;;;;;;;;;;;31.37;19.98;101685.75;5022208;28;19921;-75
2023/06/09 13:09:57;;;;;;;;;;;;;;;31.25;20.92;101694.41;5010020;28;19925;-75
2023/06/09 13:12:22;;;;;;;;;;;;;;;31.40;20.48;101678.66;5010140;28;19922;-76
2023/06/09 13:14:48;;;;;;;;;;;;;;;31.79;23.26;101681.56;5011878;28;19921;-74
2023/06/09 13:17:13;;;;;;;;;;;;;;;32.05;19.56;101672.09;5010368;28;20406;-75
2023/06/09 13:19:39;;;;;;;;;;;;;;;31.83;19.80;101670.47;5021797;28;19929;-76
2023/06/09 13:22:04;;;;;;;;;;;;;;;31.27;21.53;101680.97;5026974;28;19979;-75
2023/06/09 13:24:30;;;;;;;;;;;;;;;30.44;20.86;101681.59;5008566;28;19924;-75
2023/06/09 13:26:55;;;;;;;;;;;;;;;31.30;20.61;101685.75;5025656;28;19917;-76
2023/06/09 13:29:21;;;;;;;;;;;;;;;31.92;19.67;101668.91;5025659;28;19957;-76
2023/06/09 13:31:47;;;;;;;;;;;;;;;31.56;18.41;101665.25;5026793;28;19921;-75
2023/06/09 13:34:13;;;;;;;;;;;;;;;31.41;18.57;101683.00;5027132;28;19924;-75
2023/06/09 13:36:39;;;;;;;;;;;;;;;31.36;19.14;101680.59;5029818;28;19925;-73
2023/06/09 13:39:04;;;;;;;;;;;;;;;31.20;18.75;101670.63;5008230;28;19917;-75
2023/06/09 13:41:30;;;;;;;;;;;;;;;30.76;20.35;101668.03;5007743;28;20390;-74